createdAt,value
2022-11-23T00:00:41.162Z,92754.72
2022-11-23T00:03:07.535Z,92759.91
2022-11-23T00:05:33.908Z,92768.03
2022-11-23T00:08:00.255Z,92772.25
2022-11-23T00:10:26.598Z,92789.53
2022-11-23T00:12:52.951Z,92798.50
2022-11-23T00:15:19.345Z,92808.84
2022-11-23T00:17:48.091Z,92841.03
2022-11-23T00:20:14.488Z,92876.03
2022-11-23T00:22:40.821Z,92901.47
2022-11-23T00:25:07.580Z,92958.66
2022-11-23T00:27:33.958Z,92997.13
2022-11-23T00:30:00.383Z,93031.06
2022-11-23T00:32:28.944Z,93056.22
2022-11-23T00:34:55.305Z,93088.69
2022-11-23T00:37:21.649Z,93103.31
2022-11-23T00:39:48.014Z,93109.22
2022-11-23T00:42:14.426Z,93141.63
2022-11-23T00:44:40.874Z,93128.72
2022-11-23T00:47:07.575Z,93098.72
2022-11-23T00:49:34.036Z,93061.81
2022-11-23T00:52:00.524Z,93030.47
2022-11-23T00:54:26.880Z,93013.00
2022-11-23T00:56:53.233Z,92977.06
2022-11-23T00:59:19.590Z,92976.47
2022-11-23T01:01:46.003Z,92953.81
2022-11-23T01:04:12.384Z,92955.44
2022-11-23T01:06:39.473Z,92960.97
2022-11-23T01:09:13.687Z,92941.53
2022-11-23T01:11:40.335Z,92928.22
2022-11-23T01:14:06.767Z,92918.53
2022-11-23T01:16:34.857Z,92918.53
2022-11-23T01:19:02.901Z,92951.63
2022-11-23T01:21:29.980Z,92951.38
2022-11-23T01:23:56.579Z,92932.75
2022-11-23T01:26:23.009Z,92919.03
2022-11-23T01:28:49.387Z,92902.56
2022-11-23T01:31:18.563Z,92902.56
2022-11-23T01:33:44.973Z,92911.66
2022-11-23T01:36:19.090Z,92928.25
2022-11-23T01:38:45.909Z,92936.19
2022-11-23T01:41:13.745Z,92927.03
2022-11-23T01:43:40.271Z,92909.19
2022-11-23T01:46:06.636Z,92896.09
2022-11-23T01:48:54.248Z,92904.03
2022-11-23T01:51:22.880Z,92900.84
2022-11-23T01:53:49.918Z,92920.63
2022-11-23T01:56:18.570Z,92925.78
2022-11-23T01:58:46.602Z,92911.28
2022-11-23T02:01:13.211Z,92913.50
2022-11-23T02:03:39.646Z,92897.19
2022-11-23T02:06:09.965Z,92901.56
2022-11-23T02:08:36.371Z,92891.03
2022-11-23T02:11:02.810Z,92905.50
2022-11-23T02:13:29.220Z,92921.91
2022-11-23T02:15:56.370Z,92908.22
2022-11-23T02:18:23.735Z,92924.06
2022-11-23T02:20:50.157Z,92920.50
2022-11-23T02:23:21.454Z,92927.97
2022-11-23T02:25:54.384Z,92918.47
2022-11-23T02:28:26.332Z,92912.13
2022-11-23T02:30:53.512Z,92907.97
2022-11-23T02:33:19.867Z,92910.91
2022-11-23T02:35:50.374Z,92889.91
2022-11-23T02:38:16.750Z,92877.94
2022-11-23T02:40:43.127Z,92860.50
2022-11-23T02:43:09.477Z,92839.84
2022-11-23T02:45:55.851Z,92814.50
2022-11-23T02:48:22.221Z,92798.66
2022-11-23T02:50:48.612Z,92774.06
2022-11-23T02:53:15.133Z,92768.91
2022-11-23T02:55:41.539Z,92770.66
2022-11-23T02:58:08.071Z,92762.09
2022-11-23T03:00:34.710Z,92749.06
2022-11-23T03:03:01.660Z,92726.66
2022-11-23T03:05:28.265Z,92732.78
2022-11-23T03:07:54.607Z,92735.38
2022-11-23T03:10:21.109Z,92730.84
2022-11-23T03:12:47.722Z,92701.06
2022-11-23T03:15:14.105Z,92687.97
2022-11-23T03:17:40.469Z,92651.44
2022-11-23T03:20:07.247Z,92622.47
2022-11-23T03:22:33.963Z,92592.63
2022-11-23T03:25:01.441Z,92545.16
2022-11-23T03:27:27.853Z,92522.28
2022-11-23T03:29:54.249Z,92497.66
2022-11-23T03:32:20.586Z,92489.47
2022-11-23T03:34:46.938Z,92476.16
2022-11-23T03:37:13.346Z,92474.19
2022-11-23T03:39:44.232Z,92467.03
2022-11-23T03:42:13.470Z,92450.69
2022-11-23T03:44:39.821Z,92437.19
2022-11-23T03:47:06.200Z,92433.41
2022-11-23T03:49:34.924Z,92420.25
2022-11-23T03:52:01.315Z,92418.84
2022-11-23T03:54:27.654Z,92404.50
2022-11-23T03:56:54.020Z,92394.56
2022-11-23T03:59:20.547Z,92388.00
2022-11-23T04:01:46.962Z,92387.78
2022-11-23T04:04:13.381Z,92385.38
2022-11-23T04:06:39.731Z,92390.13
2022-11-23T04:09:06.099Z,92374.78
2022-11-23T04:11:32.455Z,92373.38
2022-11-23T04:13:58.794Z,92382.97
2022-11-23T04:16:25.149Z,92376.16
2022-11-23T04:18:51.532Z,92379.91
2022-11-23T04:21:17.866Z,92386.06
2022-11-23T04:23:44.237Z,92385.03
2022-11-23T04:26:10.591Z,92403.75
2022-11-23T04:28:36.951Z,92428.25
2022-11-23T04:31:03.304Z,92448.19
2022-11-23T04:33:31.545Z,92464.72
2022-11-23T04:36:00.864Z,92468.06
2022-11-23T04:38:27.304Z,92484.41
2022-11-23T04:40:53.648Z,92478.03
2022-11-23T04:43:20.004Z,92485.59
2022-11-23T04:45:46.446Z,92487.38
2022-11-23T04:48:12.790Z,92491.13
2022-11-23T04:50:40.813Z,92511.25
2022-11-23T04:53:07.245Z,92531.94
2022-11-23T04:55:33.797Z,92554.28
2022-11-23T04:58:00.153Z,92563.03
2022-11-23T05:00:26.852Z,92568.19
2022-11-23T05:02:53.237Z,92580.16
2022-11-23T05:05:19.658Z,92586.94
2022-11-23T05:07:46.076Z,92587.31
2022-11-23T05:10:12.669Z,92603.03
2022-11-23T05:12:39.058Z,92599.06
2022-11-23T05:15:05.863Z,92614.59
2022-11-23T05:17:33.593Z,92618.78
2022-11-23T05:20:00.054Z,92626.16
2022-11-23T05:22:26.482Z,92628.16
2022-11-23T05:24:52.842Z,92628.16
2022-11-23T05:27:19.193Z,92624.13
2022-11-23T05:29:45.535Z,92627.72
2022-11-23T05:32:11.909Z,92632.91
2022-11-23T05:34:38.323Z,92633.72
2022-11-23T05:37:04.700Z,92623.16
2022-11-23T05:39:31.490Z,92611.00
2022-11-23T05:41:57.963Z,92613.75
2022-11-23T05:44:24.316Z,92630.91
2022-11-23T05:46:50.696Z,92643.25
2022-11-23T05:49:17.053Z,92658.81
2022-11-23T05:51:43.453Z,92658.81
2022-11-23T05:54:09.812Z,92653.63
2022-11-23T05:56:40.166Z,92663.19
2022-11-23T05:59:07.893Z,92669.78
2022-11-23T06:01:34.374Z,92674.72
2022-11-23T06:04:00.776Z,92689.06
2022-11-23T06:06:27.287Z,92706.22
2022-11-23T06:08:53.653Z,92738.09
2022-11-23T06:11:20.034Z,92751.66
2022-11-23T06:13:47.820Z,92767.19
2022-11-23T06:16:14.188Z,92788.69
2022-11-23T06:18:40.582Z,92815.81
2022-11-23T06:21:06.932Z,92851.88
2022-11-23T06:23:33.333Z,92868.41
2022-11-23T06:26:00.487Z,92893.91
2022-11-23T06:28:27.287Z,92917.78
2022-11-23T06:30:53.615Z,92925.97
2022-11-23T06:33:19.980Z,92940.88
2022-11-23T06:35:57.160Z,92928.94
2022-11-23T06:38:23.564Z,92914.59
2022-11-23T06:40:49.907Z,92907.84
2022-11-23T06:43:16.303Z,92906.22
2022-11-23T06:45:42.815Z,92890.66
2022-11-23T06:48:09.264Z,92884.91
2022-11-23T06:50:35.642Z,92866.41
2022-11-23T06:53:02.076Z,92864.78
2022-11-23T06:55:28.446Z,92867.78
2022-11-23T06:57:56.673Z,92867.78
2022-11-23T07:00:23.113Z,92865.19
2022-11-23T07:02:52.940Z,92854.81
2022-11-23T07:05:19.427Z,92848.28
2022-11-23T07:07:45.815Z,92843.50
2022-11-23T07:10:12.470Z,92823.56
2022-11-23T07:12:38.979Z,92833.34
2022-11-23T07:15:05.714Z,92829.75
2022-11-23T07:17:32.103Z,92846.88
2022-11-23T07:19:58.476Z,92829.38
2022-11-23T07:22:24.842Z,92827.78
2022-11-23T07:24:51.174Z,92834.94
2022-11-23T07:27:17.852Z,92824.97
2022-11-23T07:29:44.216Z,92828.78
2022-11-23T07:32:14.973Z,92829.78
2022-11-23T07:34:41.319Z,92830.59
2022-11-23T07:37:07.772Z,92842.53
2022-11-23T07:39:55.745Z,92847.31
2022-11-23T07:42:41.461Z,92846.53
2022-11-23T07:45:07.532Z,92855.53
2022-11-23T07:47:33.908Z,92860.91
2022-11-23T07:50:00.277Z,92876.03
2022-11-23T07:52:26.628Z,92890.81
2022-11-23T07:54:52.970Z,92905.56
2022-11-23T07:57:19.330Z,92927.50
2022-11-23T07:59:45.682Z,92937.88
2022-11-23T08:02:15.251Z,92920.31
2022-11-23T08:04:41.648Z,92916.75
2022-11-23T08:07:08.072Z,92906.59
2022-11-23T08:09:34.443Z,92909.56
2022-11-23T08:12:00.775Z,92907.97
2022-11-23T08:14:27.356Z,92912.34
2022-11-23T08:16:53.721Z,92931.09
2022-11-23T08:19:20.077Z,92939.88
2022-11-23T08:21:46.435Z,92961.03
2022-11-23T08:24:12.812Z,92965.25
2022-11-23T08:26:39.170Z,92960.06
2022-11-23T08:29:05.581Z,92953.69
2022-11-23T08:31:32.209Z,92968.63
2022-11-23T08:34:03.026Z,92982.59
2022-11-23T08:36:29.727Z,92977.41
2022-11-23T08:38:56.072Z,92992.59
2022-11-23T08:41:22.425Z,93020.53
2022-11-23T08:43:48.769Z,93034.88
2022-11-23T08:46:15.247Z,93056.06
2022-11-23T08:48:41.601Z,93049.66
2022-11-23T08:51:08.094Z,93040.06
2022-11-23T08:53:34.502Z,93016.91
2022-11-23T08:56:01.820Z,93007.56
2022-11-23T08:58:28.265Z,93026.94
2022-11-23T09:00:54.631Z,93029.72
2022-11-23T09:03:21.482Z,93034.56
2022-11-23T09:05:47.828Z,93037.75
2022-11-23T09:08:16.374Z,93033.34
2022-11-23T09:10:42.721Z,93031.16
2022-11-23T09:13:09.256Z,93038.56
2022-11-23T09:15:35.606Z,93030.34
2022-11-23T09:18:02.130Z,93059.91
2022-11-23T09:20:28.617Z,93106.84
2022-11-23T09:22:55.118Z,93152.44
2022-11-23T09:25:21.918Z,93195.59
2022-11-23T09:27:48.737Z,93230.59
2022-11-23T09:30:16.049Z,93287.19
2022-11-23T09:32:42.480Z,93307.16
2022-11-23T09:35:09.160Z,93329.13
2022-11-23T09:37:35.546Z,93364.34
2022-11-23T09:40:01.957Z,93397.13
2022-11-23T09:42:53.626Z,93396.34
2022-11-23T09:45:26.695Z,93403.44
2022-11-23T09:47:56.184Z,93432.44
2022-11-23T09:50:47.243Z,93438.06
2022-11-23T09:53:26.668Z,93444.50
2022-11-23T09:55:54.110Z,93444.91
2022-11-23T09:58:21.606Z,93449.31
2022-11-23T10:00:51.176Z,93459.75
2022-11-23T10:03:17.881Z,93494.81
2022-11-23T10:06:19.684Z,93535.88
2022-11-23T10:09:01.222Z,93649.28
2022-11-23T10:12:02.555Z,93876.78
2022-11-23T10:14:50.188Z,93991.47
2022-11-23T10:17:22.534Z,94059.88
2022-11-23T10:20:10.838Z,94135.25
2022-11-23T10:22:57.418Z,94248.47
2022-11-23T10:25:24.116Z,94345.53
2022-11-23T10:27:52.305Z,94403.16
2022-11-23T10:30:19.098Z,94489.69
2022-11-23T10:33:17.684Z,94553.31
2022-11-23T10:35:44.041Z,94638.22
2022-11-23T10:38:19.460Z,94693.63
2022-11-23T10:40:58.489Z,94711.72
2022-11-23T10:43:27.023Z,94687.88
2022-11-23T10:46:17.325Z,94709.03
2022-11-23T10:48:44.868Z,94784.97
2022-11-23T10:51:26.510Z,94826.03
2022-11-23T10:53:53.935Z,94866.44
2022-11-23T10:56:20.298Z,94892.47
2022-11-23T10:58:46.714Z,94974.97
2022-11-23T11:01:14.400Z,95070.22
2022-11-23T11:03:40.966Z,95096.16
2022-11-23T11:06:09.387Z,95160.09
2022-11-23T11:08:50.166Z,95191.09
2022-11-23T11:11:25.708Z,95236.94
2022-11-23T11:13:52.081Z,95271.84
2022-11-23T11:16:37.329Z,95309.69
2022-11-23T11:19:30.002Z,95372.84
2022-11-23T11:21:57.516Z,95404.66
2022-11-23T11:24:47.229Z,95370.06
2022-11-23T11:27:18.258Z,95404.53
2022-11-23T11:29:44.594Z,95444.84
2022-11-23T11:32:34.943Z,95388.06
2022-11-23T11:35:19.097Z,95334.38
2022-11-23T11:37:47.785Z,95388.06
2022-11-23T11:40:26.302Z,95416.09
2022-11-23T11:43:08.582Z,95416.44
2022-11-23T11:46:06.500Z,95354.75
2022-11-23T11:48:48.449Z,95357.19
2022-11-23T11:51:21.438Z,95372.41
2022-11-23T11:54:05.539Z,95338.13
2022-11-23T11:56:36.535Z,95332.56
2022-11-23T11:59:14.055Z,95377.28
2022-11-23T12:01:44.967Z,95343.66
2022-11-23T12:04:27.759Z,95350.19
2022-11-23T12:07:14.474Z,95346.28
2022-11-23T12:09:42.452Z,95365.88
2022-11-23T12:12:13.370Z,95341.88
2022-11-23T12:14:39.787Z,95304.50
2022-11-23T12:17:36.005Z,95353.63
2022-11-23T12:20:07.847Z,95374.06
2022-11-23T12:23:12.706Z,95377.63
2022-11-23T12:25:41.888Z,95302.84
2022-11-23T12:28:27.528Z,95291.13
2022-11-23T12:31:21.967Z,95370.13
2022-11-23T12:34:01.416Z,95495.84
2022-11-23T12:37:15.948Z,95647.06
2022-11-23T12:40:04.106Z,95641.84
2022-11-23T12:42:44.513Z,95668.66
2022-11-23T12:45:17.533Z,95655.59
2022-11-23T12:47:46.672Z,95693.16
2022-11-23T12:50:13.129Z,95765.41
2022-11-23T12:52:43.159Z,95817.09
2022-11-23T12:55:26.080Z,95826.94
2022-11-23T12:57:59.089Z,95813.19
2022-11-23T13:00:25.831Z,95801.94
2022-11-23T13:03:35.916Z,95724.63
2022-11-23T13:06:08.454Z,95829.28
2022-11-23T13:09:05.187Z,95855.34
2022-11-23T13:11:53.138Z,95907.84
2022-11-23T13:14:35.623Z,95907.84
2022-11-23T13:17:08.439Z,95965.09
2022-11-23T13:19:37.719Z,96020.88
2022-11-23T13:22:08.454Z,96070.56
2022-11-23T13:24:39.945Z,96127.47
2022-11-23T13:27:18.544Z,96112.03
2022-11-23T13:29:51.177Z,96098.66
2022-11-23T13:32:39.584Z,96074.22
2022-11-23T13:35:21.170Z,96010.69
2022-11-23T13:37:56.336Z,95988.72
2022-11-23T13:40:29.764Z,95988.13
2022-11-23T13:43:16.448Z,96004.63
2022-11-23T13:45:43.112Z,96012.56
2022-11-23T13:48:09.528Z,96053.97
2022-11-23T13:50:51.486Z,96005.19
2022-11-23T13:53:41.256Z,96044.63
2022-11-23T13:56:41.805Z,96065.69
2022-11-23T13:59:23.453Z,96128.38
2022-11-23T14:02:03.305Z,96113.34
2022-11-23T14:04:31.281Z,96133.84
2022-11-23T14:07:17.634Z,96133.47
2022-11-23T14:09:54.935Z,96148.78
2022-11-23T14:12:49.782Z,96082.50
2022-11-23T14:15:27.119Z,96024.28
2022-11-23T14:17:59.576Z,95965.22
2022-11-23T14:20:42.639Z,95949.72
2022-11-23T14:23:11.954Z,95842.00
2022-11-23T14:26:10.867Z,95711.03
2022-11-23T14:28:59.647Z,95679.81
2022-11-23T14:31:41.868Z,95604.84
2022-11-23T14:34:14.448Z,95524.22
2022-11-23T14:36:46.617Z,95440.69
2022-11-23T14:39:25.172Z,95350.34
2022-11-23T14:41:53.742Z,95310.59
2022-11-23T14:44:25.563Z,95259.72
2022-11-23T14:47:05.808Z,95179.84
2022-11-23T14:49:32.328Z,95144.03
2022-11-23T14:51:58.788Z,95106.25
2022-11-23T14:54:25.802Z,95062.78
2022-11-23T14:56:53.579Z,95017.03
2022-11-23T14:59:27.501Z,94995.84
2022-11-23T15:02:12.854Z,94966.25
2022-11-23T15:04:42.423Z,94941.84
2022-11-23T15:07:20.620Z,94905.72
2022-11-23T15:09:51.747Z,94879.06
2022-11-23T15:12:24.187Z,94910.13
2022-11-23T15:14:51.304Z,94926.88
2022-11-23T15:17:19.388Z,94921.34
2022-11-23T15:20:01.782Z,94902.97
2022-11-23T15:22:28.526Z,94871.06
2022-11-23T15:24:55.115Z,94849.78
2022-11-23T15:27:29.877Z,94846.84
2022-11-23T15:29:58.076Z,94839.03
2022-11-23T15:32:33.910Z,94822.75
2022-11-23T15:35:03.473Z,94783.06
2022-11-23T15:37:29.874Z,94707.66
2022-11-23T15:39:56.277Z,94669.34
2022-11-23T15:42:24.077Z,94630.34
2022-11-23T15:44:54.843Z,94620.59
2022-11-23T15:47:26.114Z,94599.66
2022-11-23T15:49:55.503Z,94561.66
2022-11-23T15:52:21.910Z,94527.50
2022-11-23T15:54:48.273Z,94490.03
2022-11-23T15:57:22.567Z,94476.69
2022-11-23T15:59:50.279Z,94469.25
2022-11-23T16:02:28.573Z,94450.44
2022-11-23T16:05:14.732Z,94418.47
2022-11-23T16:07:57.607Z,94376.44
2022-11-23T16:10:25.812Z,94367.03
2022-11-23T16:12:56.613Z,94365.88
2022-11-23T16:15:38.406Z,94345.59
2022-11-23T16:18:06.319Z,94325.19
2022-11-23T16:20:32.667Z,94316.41
2022-11-23T16:23:00.213Z,94317.09
2022-11-23T16:25:31.651Z,94315.78
2022-11-23T16:28:00.998Z,94318.69
2022-11-23T16:30:35.163Z,94314.50
2022-11-23T16:33:01.557Z,94313.91
2022-11-23T16:35:27.905Z,94312.59
2022-11-23T16:37:54.263Z,94286.66
2022-11-23T16:40:20.616Z,94281.00
2022-11-23T16:42:51.016Z,94280.53
2022-11-23T16:45:17.393Z,94268.56
2022-11-23T16:47:59.958Z,94241.31
2022-11-23T16:50:33.133Z,94196.59
2022-11-23T16:53:10.243Z,94149.56
2022-11-23T16:55:40.699Z,94116.97
2022-11-23T16:58:10.235Z,94103.50
2022-11-23T17:00:36.569Z,94121.31
2022-11-23T17:03:02.932Z,94135.34
2022-11-23T17:05:29.285Z,94137.28
2022-11-23T17:07:55.749Z,94128.28
2022-11-23T17:10:22.186Z,94081.13
2022-11-23T17:12:53.475Z,94027.66
2022-11-23T17:15:20.833Z,93978.25
2022-11-23T17:17:47.181Z,93940.34
2022-11-23T17:20:14.645Z,93926.72
2022-11-23T17:22:41.018Z,93920.28
2022-11-23T17:25:14.266Z,93900.81
2022-11-23T17:27:41.806Z,93899.19
2022-11-23T17:30:13.765Z,93939.63
2022-11-23T17:32:40.102Z,93963.44
2022-11-23T17:35:06.805Z,93979.53
2022-11-23T17:37:33.184Z,94027.31
2022-11-23T17:39:59.579Z,94043.53
2022-11-23T17:42:25.922Z,94041.28
2022-11-23T17:44:52.357Z,94031.41
2022-11-23T17:47:28.994Z,94057.34
2022-11-23T17:49:55.615Z,94063.81
2022-11-23T17:52:22.436Z,94091.19
2022-11-23T17:54:48.851Z,94116.75
2022-11-23T17:57:15.909Z,94155.91
2022-11-23T17:59:42.332Z,94176.63
2022-11-23T18:02:09.155Z,94200.53
2022-11-23T18:04:35.597Z,94190.19
2022-11-23T18:07:02.196Z,94184.69
2022-11-23T18:09:28.622Z,94130.34
2022-11-23T18:11:55.036Z,94059.31
2022-11-23T18:14:22.142Z,93955.53
2022-11-23T18:16:48.600Z,93875.53
2022-11-23T18:19:15.015Z,93816.50
2022-11-23T18:21:41.829Z,93793.13
2022-11-23T18:24:11.676Z,93769.38
2022-11-23T18:26:38.360Z,93786.91
2022-11-23T18:29:04.735Z,93811.50
2022-11-23T18:31:31.145Z,93858.19
2022-11-23T18:33:57.743Z,93907.78
2022-11-23T18:36:24.495Z,93880.53
2022-11-23T18:38:50.901Z,93893.47
2022-11-23T18:41:17.365Z,93902.41
2022-11-23T18:43:44.285Z,93885.22
2022-11-23T18:46:11.332Z,93888.97
2022-11-23T18:48:37.914Z,93897.81
2022-11-23T18:51:04.802Z,93933.19
2022-11-23T18:53:32.265Z,93950.34
2022-11-23T18:56:04.860Z,93964.09
2022-11-23T18:58:39.029Z,93996.69
2022-11-23T19:01:17.775Z,93994.88
2022-11-23T19:03:44.670Z,93998.13
2022-11-23T19:06:14.395Z,94019.19
2022-11-23T19:08:48.616Z,94045.31
2022-11-23T19:11:20.896Z,94064.59
2022-11-23T19:13:52.302Z,94077.88
2022-11-23T19:16:21.334Z,94071.44
2022-11-23T19:18:48.383Z,94084.03
2022-11-23T19:21:15.826Z,94064.31
2022-11-23T19:23:42.570Z,94062.06
2022-11-23T19:26:09.015Z,94036.50
2022-11-23T19:28:35.617Z,94063.69
2022-11-23T19:31:19.076Z,94052.84
2022-11-23T19:33:46.375Z,94036.84
2022-11-23T19:36:14.785Z,94019.69
2022-11-23T19:38:41.162Z,93988.16
2022-11-23T19:41:07.614Z,93978.59
2022-11-23T19:43:34.054Z,94002.72
2022-11-23T19:46:02.476Z,94028.44
2022-11-23T19:48:32.789Z,94056.59
2022-11-23T19:51:12.285Z,94077.91
2022-11-23T19:53:39.230Z,94111.56
2022-11-23T19:56:26.070Z,94138.06
2022-11-23T19:58:53.689Z,94171.03
2022-11-23T20:01:21.238Z,94185.56
2022-11-23T20:03:50.792Z,94203.16
2022-11-23T20:06:27.907Z,94211.03
2022-11-23T20:08:58.462Z,94197.16
2022-11-23T20:11:25.580Z,94192.28
2022-11-23T20:13:51.987Z,94201.63
2022-11-23T20:16:19.090Z,94196.44
2022-11-23T20:18:45.970Z,94238.44
2022-11-23T20:21:13.509Z,94255.91
2022-11-23T20:23:40.626Z,94243.75
2022-11-23T20:26:07.484Z,94231.66
2022-11-23T20:28:33.929Z,94222.13
2022-11-23T20:31:07.115Z,94185.31
2022-11-23T20:33:33.537Z,94168.84
2022-11-23T20:36:09.594Z,94132.16
2022-11-23T20:38:39.167Z,94127.31
2022-11-23T20:41:15.908Z,94108.25
2022-11-23T20:43:42.583Z,94114.06
2022-11-23T20:46:09.165Z,94121.66
2022-11-23T20:48:35.636Z,94143.78
2022-11-23T20:51:07.585Z,94154.41
2022-11-23T20:53:36.709Z,94151.19
2022-11-23T20:56:03.088Z,94163.78
2022-11-23T20:58:29.724Z,94164.72
2022-11-23T21:00:56.489Z,94148.25
2022-11-23T21:03:22.933Z,94171.16
2022-11-23T21:05:49.353Z,94165.97
2022-11-23T21:08:25.380Z,94160.50
2022-11-23T21:11:12.773Z,94158.91
2022-11-23T21:13:57.667Z,94174.22
2022-11-23T21:16:24.050Z,94183.72
2022-11-23T21:18:51.587Z,94202.78
2022-11-23T21:21:17.944Z,94196.66
2022-11-23T21:23:48.147Z,94220.53
2022-11-23T21:26:17.292Z,94230.22
2022-11-23T21:28:43.666Z,94232.47
2022-11-23T21:31:10.296Z,94228.94
2022-11-23T21:33:37.158Z,94239.28
2022-11-23T21:36:04.489Z,94260.25
2022-11-23T21:38:38.457Z,94240.91
2022-11-23T21:41:06.075Z,94210.75
2022-11-23T21:43:32.533Z,94149.91
2022-11-23T21:46:09.354Z,94089.50
2022-11-23T21:48:36.047Z,94006.78
2022-11-23T21:51:03.826Z,93941.47
2022-11-23T21:53:30.657Z,93897.78
2022-11-23T21:56:01.427Z,93876.94
2022-11-23T21:58:28.073Z,93855.56
2022-11-23T22:00:54.509Z,93852.81
2022-11-23T22:03:21.073Z,93853.13
2022-11-23T22:05:57.444Z,93824.47
2022-11-23T22:08:31.548Z,93835.28
2022-11-23T22:10:58.178Z,93838.16
2022-11-23T22:13:24.730Z,93844.63
2022-11-23T22:15:51.321Z,93844.28
2022-11-23T22:18:17.933Z,93840.19
2022-11-23T22:20:44.502Z,93843.59
2022-11-23T22:23:12.195Z,93838.09
2022-11-23T22:25:40.209Z,93836.59
2022-11-23T22:28:09.513Z,93853.28
2022-11-23T22:30:35.949Z,93864.63
2022-11-23T22:33:02.461Z,93873.38
2022-11-23T22:35:29.612Z,93879.53
2022-11-23T22:37:56.318Z,93885.84
2022-11-23T22:40:22.766Z,93893.94
2022-11-23T22:42:49.287Z,93890.53
2022-11-23T22:45:15.852Z,93887.00
2022-11-23T22:47:42.300Z,93880.03
2022-11-23T22:50:09.300Z,93862.34
2022-11-23T22:52:35.793Z,93841.31
2022-11-23T22:55:02.470Z,93818.31
2022-11-23T22:57:28.924Z,93802.44
2022-11-23T22:59:55.417Z,93791.75
2022-11-23T23:02:22.143Z,93790.22
2022-11-23T23:04:48.627Z,93791.84
2022-11-23T23:07:15.121Z,93793.63
2022-11-23T23:09:41.627Z,93805.44
2022-11-23T23:12:08.186Z,93820.31
2022-11-23T23:14:35.512Z,93819.38
2022-11-23T23:17:02.186Z,93820.16
2022-11-23T23:19:28.863Z,93821.16
2022-11-23T23:21:55.321Z,93826.50
2022-11-23T23:24:21.783Z,93816.13
2022-11-23T23:26:48.472Z,93829.09
2022-11-23T23:29:15.137Z,93823.41
2022-11-23T23:31:41.600Z,93828.59
2022-11-23T23:34:08.134Z,93830.88
2022-11-23T23:36:35.417Z,93832.81
2022-11-23T23:39:05.084Z,93837.84
2022-11-23T23:41:31.534Z,93840.88
2022-11-23T23:43:57.990Z,93854.47
2022-11-23T23:46:24.590Z,93849.75
2022-11-23T23:48:51.165Z,93848.16
2022-11-23T23:51:22.070Z,93859.31
2022-11-23T23:53:48.628Z,93854.59
2022-11-23T23:56:17.049Z,93855.41
2022-11-23T23:58:43.680Z,93852.47
